sensor_id;sensor_type;location;lat;lon;timestamp;temperature;humidity
19968;DHT22;10145;49.152;9.282;2023-03-14T00:01:06;10.00;99.90
19968;DHT22;10145;49.152;9.282;2023-03-14T00:03:32;10.00;99.90
19968;DHT22;10145;49.152;9.282;2023-03-14T00:06:02;10.00;99.90
19968;DHT22;10145;49.152;9.282;2023-03-14T00:08:28;10.00;99.90
19968;DHT22;10145;49.152;9.282;2023-03-14T00:10:53;10.00;99.90
19968;DHT22;10145;49.152;9.282;2023-03-14T00:13:19;9.90;99.90
19968;DHT22;10145;49.152;9.282;2023-03-14T00:15:44;9.90;99.90
19968;DHT22;10145;49.152;9.282;2023-03-14T00:18:09;9.90;99.90
19968;DHT22;10145;49.152;9.282;2023-03-14T00:20:35;9.90;99.90
19968;DHT22;10145;49.152;9.282;2023-03-14T00:23:00;9.90;99.90
19968;DHT22;10145;49.152;9.282;2023-03-14T00:25:27;9.90;99.90
19968;DHT22;10145;49.152;9.282;2023-03-14T00:27:53;9.90;99.90
19968;DHT22;10145;49.152;9.282;2023-03-14T00:30:19;9.90;99.90
19968;DHT22;10145;49.152;9.282;2023-03-14T00:32:44;9.90;99.90
19968;DHT22;10145;49.152;9.282;2023-03-14T00:35:10;10.00;99.90
19968;DHT22;10145;49.152;9.282;2023-03-14T00:37:35;10.00;99.90
19968;DHT22;10145;49.152;9.282;2023-03-14T00:40:01;10.00;99.90
19968;DHT22;10145;49.152;9.282;2023-03-14T00:42:27;9.90;99.90
19968;DHT22;10145;49.152;9.282;2023-03-14T00:44:53;9.90;99.90
19968;DHT22;10145;49.152;9.282;2023-03-14T00:47:18;9.90;99.90
19968;DHT22;10145;49.152;9.282;2023-03-14T00:49:44;9.90;99.90
19968;DHT22;10145;49.152;9.282;2023-03-14T00:52:09;9.80;99.90
19968;DHT22;10145;49.152;9.282;2023-03-14T00:54:35;9.80;99.90
19968;DHT22;10145;49.152;9.282;2023-03-14T00:57:00;9.80;99.90
19968;DHT22;10145;49.152;9.282;2023-03-14T00:59:26;9.90;99.90
19968;DHT22;10145;49.152;9.282;2023-03-14T01:01:51;9.90;99.90
19968;DHT22;10145;49.152;9.282;2023-03-14T01:04:17;9.90;99.90
19968;DHT22;10145;49.152;9.282;2023-03-14T01:06:42;9.90;99.90
19968;DHT22;10145;49.152;9.282;2023-03-14T01:09:08;9.80;99.90
19968;DHT22;10145;49.152;9.282;2023-03-14T01:11:34;9.90;99.90
19968;DHT22;10145;49.152;9.282;2023-03-14T01:14:01;9.90;99.90
19968;DHT22;10145;49.152;9.282;2023-03-14T01:16:29;9.90;99.90
19968;DHT22;10145;49.152;9.282;2023-03-14T01:18:54;9.90;99.90
19968;DHT22;10145;49.152;9.282;2023-03-14T01:21:26;9.90;99.90
19968;DHT22;10145;49.152;9.282;2023-03-14T01:23:53;9.90;99.90
19968;DHT22;10145;49.152;9.282;2023-03-14T01:26:21;9.90;99.90
19968;DHT22;10145;49.152;9.282;2023-03-14T01:28:48;9.90;99.90
19968;DHT22;10145;49.152;9.282;2023-03-14T01:31:15;10.00;99.90
19968;DHT22;10145;49.152;9.282;2023-03-14T01:33:41;10.10;99.90
19968;DHT22;10145;49.152;9.282;2023-03-14T01:36:07;10.10;99.90
19968;DHT22;10145;49.152;9.282;2023-03-14T01:38:34;10.10;99.90
19968;DHT22;10145;49.152;9.282;2023-03-14T01:41:01;10.10;99.90
19968;DHT22;10145;49.152;9.282;2023-03-14T01:43:27;10.10;99.90
19968;DHT22;10145;49.152;9.282;2023-03-14T01:48:48;10.10;99.90
19968;DHT22;10145;49.152;9.282;2023-03-14T01:51:20;10.00;99.90
19968;DHT22;10145;49.152;9.282;2023-03-14T01:53:46;10.10;99.90
19968;DHT22;10145;49.152;9.282;2023-03-14T01:56:14;10.10;99.90
19968;DHT22;10145;49.152;9.282;2023-03-14T01:58:42;10.00;99.90
19968;DHT22;10145;49.152;9.282;2023-03-14T02:01:10;10.00;99.90
19968;DHT22;10145;49.152;9.282;2023-03-14T02:03:46;10.00;99.90
19968;DHT22;10145;49.152;9.282;2023-03-14T02:06:15;10.10;99.90
19968;DHT22;10145;49.152;9.282;2023-03-14T02:08:42;10.10;99.90
19968;DHT22;10145;49.152;9.282;2023-03-14T02:11:12;10.10;99.90
19968;DHT22;10145;49.152;9.282;2023-03-14T02:13:38;10.10;99.90
19968;DHT22;10145;49.152;9.282;2023-03-14T02:16:04;10.10;99.90
19968;DHT22;10145;49.152;9.282;2023-03-14T02:18:33;10.10;99.90
19968;DHT22;10145;49.152;9.282;2023-03-14T02:21:11;10.20;99.90
19968;DHT22;10145;49.152;9.282;2023-03-14T02:27:10;10.10;99.90
19968;DHT22;10145;49.152;9.282;2023-03-14T02:29:41;10.20;99.90
19968;DHT22;10145;49.152;9.282;2023-03-14T02:32:10;10.20;99.90
19968;DHT22;10145;49.152;9.282;2023-03-14T02:34:36;10.10;99.90
19968;DHT22;10145;49.152;9.282;2023-03-14T02:37:02;10.20;99.90
19968;DHT22;10145;49.152;9.282;2023-03-14T02:39:40;10.10;99.90
19968;DHT22;10145;49.152;9.282;2023-03-14T02:42:07;10.10;99.90
19968;DHT22;10145;49.152;9.282;2023-03-14T02:44:32;10.20;99.90
19968;DHT22;10145;49.152;9.282;2023-03-14T02:46:58;10.10;99.90
19968;DHT22;10145;49.152;9.282;2023-03-14T02:49:25;10.00;99.90
19968;DHT22;10145;49.152;9.282;2023-03-14T02:51:51;10.10;99.90
19968;DHT22;10145;49.152;9.282;2023-03-14T02:54:18;10.00;99.90
19968;DHT22;10145;49.152;9.282;2023-03-14T02:56:44;10.10;99.90
19968;DHT22;10145;49.152;9.282;2023-03-14T02:59:10;10.10;99.90
19968;DHT22;10145;49.152;9.282;2023-03-14T03:01:35;10.10;99.90
19968;DHT22;10145;49.152;9.282;2023-03-14T03:04:01;10.10;99.90
19968;DHT22;10145;49.152;9.282;2023-03-14T03:06:26;10.00;99.90
19968;DHT22;10145;49.152;9.282;2023-03-14T03:08:52;10.00;99.90
19968;DHT22;10145;49.152;9.282;2023-03-14T03:11:18;9.90;99.90
19968;DHT22;10145;49.152;9.282;2023-03-14T03:13:43;9.90;99.90
19968;DHT22;10145;49.152;9.282;2023-03-14T03:16:09;10.00;99.90
19968;DHT22;10145;49.152;9.282;2023-03-14T03:18:35;10.00;99.90
19968;DHT22;10145;49.152;9.282;2023-03-14T03:21:02;10.00;99.90
19968;DHT22;10145;49.152;9.282;2023-03-14T03:23:28;9.90;99.90
19968;DHT22;10145;49.152;9.282;2023-03-14T03:25:53;9.90;99.90
19968;DHT22;10145;49.152;9.282;2023-03-14T03:28:19;9.80;99.90
19968;DHT22;10145;49.152;9.282;2023-03-14T03:30:45;9.90;99.90
19968;DHT22;10145;49.152;9.282;2023-03-14T03:33:11;9.80;99.90
19968;DHT22;10145;49.152;9.282;2023-03-14T03:35:47;9.80;99.90
19968;DHT22;10145;49.152;9.282;2023-03-14T03:38:14;9.80;99.90
19968;DHT22;10145;49.152;9.282;2023-03-14T03:40:40;9.80;99.90
19968;DHT22;10145;49.152;9.282;2023-03-14T03:43:06;9.80;99.90
19968;DHT22;10145;49.152;9.282;2023-03-14T03:45:32;9.70;99.90
19968;DHT22;10145;49.152;9.282;2023-03-14T03:47:57;9.70;99.90
19968;DHT22;10145;49.152;9.282;2023-03-14T03:50:23;9.80;99.90
19968;DHT22;10145;49.152;9.282;2023-03-14T03:52:48;9.70;99.90
19968;DHT22;10145;49.152;9.282;2023-03-14T03:55:14;9.70;99.90
19968;DHT22;10145;49.152;9.282;2023-03-14T03:57:39;9.60;99.90
19968;DHT22;10145;49.152;9.282;2023-03-14T04:00:06;9.60;99.90
19968;DHT22;10145;49.152;9.282;2023-03-14T04:02:34;9.70;99.90
19968;DHT22;10145;49.152;9.282;2023-03-14T04:05:00;9.60;99.90
19968;DHT22;10145;49.152;9.282;2023-03-14T04:07:25;9.60;99.90
19968;DHT22;10145;49.152;9.282;2023-03-14T04:09:51;9.60;99.90
19968;DHT22;10145;49.152;9.282;2023-03-14T04:12:16;9.50;99.90
19968;DHT22;10145;49.152;9.282;2023-03-14T04:14:42;9.50;99.90
19968;DHT22;10145;49.152;9.282;2023-03-14T04:17:07;9.40;99.90
19968;DHT22;10145;49.152;9.282;2023-03-14T04:19:33;9.50;99.90
19968;DHT22;10145;49.152;9.282;2023-03-14T04:21:58;9.40;99.90
19968;DHT22;10145;49.152;9.282;2023-03-14T04:24:24;9.40;99.90
19968;DHT22;10145;49.152;9.282;2023-03-14T04:26:50;9.40;99.90
19968;DHT22;10145;49.152;9.282;2023-03-14T04:29:15;9.50;99.90
19968;DHT22;10145;49.152;9.282;2023-03-14T04:31:41;9.40;99.90
19968;DHT22;10145;49.152;9.282;2023-03-14T04:34:06;9.30;99.90
19968;DHT22;10145;49.152;9.282;2023-03-14T04:36:32;9.30;99.90
19968;DHT22;10145;49.152;9.282;2023-03-14T04:38:57;9.30;99.90
19968;DHT22;10145;49.152;9.282;2023-03-14T04:41:23;9.40;99.90
19968;DHT22;10145;49.152;9.282;2023-03-14T04:43:48;9.40;99.90
19968;DHT22;10145;49.152;9.282;2023-03-14T04:46:14;9.30;99.90
19968;DHT22;10145;49.152;9.282;2023-03-14T04:48:39;9.30;99.90
19968;DHT22;10145;49.152;9.282;2023-03-14T04:51:05;9.40;99.90
19968;DHT22;10145;49.152;9.282;2023-03-14T04:53:31;9.40;99.90
19968;DHT22;10145;49.152;9.282;2023-03-14T04:55:56;9.50;99.90
19968;DHT22;10145;49.152;9.282;2023-03-14T04:58:23;9.40;99.90
19968;DHT22;10145;49.152;9.282;2023-03-14T05:00:49;9.30;99.90
19968;DHT22;10145;49.152;9.282;2023-03-14T05:03:16;9.30;99.90
19968;DHT22;10145;49.152;9.282;2023-03-14T05:05:42;9.20;99.90
19968;DHT22;10145;49.152;9.282;2023-03-14T05:08:07;9.20;99.90
19968;DHT22;10145;49.152;9.282;2023-03-14T05:10:33;9.20;99.90
19968;DHT22;10145;49.152;9.282;2023-03-14T05:12:58;9.10;99.90
19968;DHT22;10145;49.152;9.282;2023-03-14T05:15:24;9.20;99.90
19968;DHT22;10145;49.152;9.282;2023-03-14T05:17:49;9.10;99.90
19968;DHT22;10145;49.152;9.282;2023-03-14T05:20:15;9.10;99.90
19968;DHT22;10145;49.152;9.282;2023-03-14T05:22:42;9.00;99.90
19968;DHT22;10145;49.152;9.282;2023-03-14T05:25:08;9.00;99.90
19968;DHT22;10145;49.152;9.282;2023-03-14T05:27:33;9.00;99.90
19968;DHT22;10145;49.152;9.282;2023-03-14T05:29:59;9.00;99.90
19968;DHT22;10145;49.152;9.282;2023-03-14T05:32:25;9.00;99.90
19968;DHT22;10145;49.152;9.282;2023-03-14T05:34:50;8.90;99.90
19968;DHT22;10145;49.152;9.282;2023-03-14T05:37:16;8.90;99.90
19968;DHT22;10145;49.152;9.282;2023-03-14T05:39:41;9.00;99.90
19968;DHT22;10145;49.152;9.282;2023-03-14T05:42:07;9.10;99.90
19968;DHT22;10145;49.152;9.282;2023-03-14T05:44:33;9.20;99.90
19968;DHT22;10145;49.152;9.282;2023-03-14T05:46:58;9.40;99.90
19968;DHT22;10145;49.152;9.282;2023-03-14T05:49:24;9.40;99.90
19968;DHT22;10145;49.152;9.282;2023-03-14T05:51:49;9.40;99.90
19968;DHT22;10145;49.152;9.282;2023-03-14T05:54:15;9.40;99.90
19968;DHT22;10145;49.152;9.282;2023-03-14T05:56:40;9.40;99.90
19968;DHT22;10145;49.152;9.282;2023-03-14T05:59:06;9.40;99.90
19968;DHT22;10145;49.152;9.282;2023-03-14T06:01:34;9.40;99.90
19968;DHT22;10145;49.152;9.282;2023-03-14T06:03:59;9.50;99.90
19968;DHT22;10145;49.152;9.282;2023-03-14T06:06:25;9.60;99.90
19968;DHT22;10145;49.152;9.282;2023-03-14T06:08:50;9.60;99.90
19968;DHT22;10145;49.152;9.282;2023-03-14T06:11:16;9.60;99.90
19968;DHT22;10145;49.152;9.282;2023-03-14T06:13:41;9.70;99.90
19968;DHT22;10145;49.152;9.282;2023-03-14T06:16:07;9.70;99.90
19968;DHT22;10145;49.152;9.282;2023-03-14T06:18:33;9.80;99.90
19968;DHT22;10145;49.152;9.282;2023-03-14T06:20:59;9.80;99.90
19968;DHT22;10145;49.152;9.282;2023-03-14T06:23:25;9.80;99.90
19968;DHT22;10145;49.152;9.282;2023-03-14T06:25:50;9.90;99.90
19968;DHT22;10145;49.152;9.282;2023-03-14T06:28:16;9.90;99.90
19968;DHT22;10145;49.152;9.282;2023-03-14T06:30:41;10.00;99.90
19968;DHT22;10145;49.152;9.282;2023-03-14T06:33:07;10.00;99.90
19968;DHT22;10145;49.152;9.282;2023-03-14T06:35:33;10.10;99.90
19968;DHT22;10145;49.152;9.282;2023-03-14T06:37:58;10.10;99.90
19968;DHT22;10145;49.152;9.282;2023-03-14T06:40:24;10.10;99.90
19968;DHT22;10145;49.152;9.282;2023-03-14T06:42:49;10.10;99.90
19968;DHT22;10145;49.152;9.282;2023-03-14T06:45:15;10.10;99.90
19968;DHT22;10145;49.152;9.282;2023-03-14T06:47:40;10.20;99.90
19968;DHT22;10145;49.152;9.282;2023-03-14T06:50:07;10.30;99.90
19968;DHT22;10145;49.152;9.282;2023-03-14T06:52:32;10.50;99.90
19968;DHT22;10145;49.152;9.282;2023-03-14T06:54:58;10.60;99.90
19968;DHT22;10145;49.152;9.282;2023-03-14T06:57:24;10.80;99.90
19968;DHT22;10145;49.152;9.282;2023-03-14T06:59:49;10.80;99.90
19968;DHT22;10145;49.152;9.282;2023-03-14T07:02:15;10.90;99.90
19968;DHT22;10145;49.152;9.282;2023-03-14T07:04:40;11.00;99.90
19968;DHT22;10145;49.152;9.282;2023-03-14T07:07:06;11.30;99.90
19968;DHT22;10145;49.152;9.282;2023-03-14T07:09:33;11.30;99.90
19968;DHT22;10145;49.152;9.282;2023-03-14T07:11:58;11.40;99.90
19968;DHT22;10145;49.152;9.282;2023-03-14T07:14:24;11.50;99.90
19968;DHT22;10145;49.152;9.282;2023-03-14T07:16:49;11.50;99.90
19968;DHT22;10145;49.152;9.282;2023-03-14T07:19:15;11.50;99.90
19968;DHT22;10145;49.152;9.282;2023-03-14T07:21:40;11.50;99.90
19968;DHT22;10145;49.152;9.282;2023-03-14T07:24:06;11.50;99.90
19968;DHT22;10145;49.152;9.282;2023-03-14T07:26:31;11.50;99.90
19968;DHT22;10145;49.152;9.282;2023-03-14T07:28:57;11.60;99.90
19968;DHT22;10145;49.152;9.282;2023-03-14T07:31:23;11.60;99.90
19968;DHT22;10145;49.152;9.282;2023-03-14T07:33:48;11.50;99.90
19968;DHT22;10145;49.152;9.282;2023-03-14T07:36:14;11.50;99.90
19968;DHT22;10145;49.152;9.282;2023-03-14T07:38:39;11.60;99.90
19968;DHT22;10145;49.152;9.282;2023-03-14T07:41:06;11.60;99.90
19968;DHT22;10145;49.152;9.282;2023-03-14T07:43:31;11.70;99.90
19968;DHT22;10145;49.152;9.282;2023-03-14T07:45:57;11.80;99.90
19968;DHT22;10145;49.152;9.282;2023-03-14T07:48:23;11.90;99.90
19968;DHT22;10145;49.152;9.282;2023-03-14T07:50:51;11.90;99.90
19968;DHT22;10145;49.152;9.282;2023-03-14T07:53:17;12.00;99.90
19968;DHT22;10145;49.152;9.282;2023-03-14T07:55:43;12.10;99.90
19968;DHT22;10145;49.152;9.282;2023-03-14T07:58:08;12.20;99.90
19968;DHT22;10145;49.152;9.282;2023-03-14T08:00:34;12.10;99.90
19968;DHT22;10145;49.152;9.282;2023-03-14T08:02:59;12.40;99.90
19968;DHT22;10145;49.152;9.282;2023-03-14T08:05:25;12.30;99.90
19968;DHT22;10145;49.152;9.282;2023-03-14T08:07:50;12.50;99.90
19968;DHT22;10145;49.152;9.282;2023-03-14T08:10:16;12.70;99.90
19968;DHT22;10145;49.152;9.282;2023-03-14T08:12:58;12.90;99.90
19968;DHT22;10145;49.152;9.282;2023-03-14T08:15:23;13.10;99.90
19968;DHT22;10145;49.152;9.282;2023-03-14T08:17:49;13.20;99.90
19968;DHT22;10145;49.152;9.282;2023-03-14T08:20:20;13.50;99.90
19968;DHT22;10145;49.152;9.282;2023-03-14T08:22:46;13.70;99.90
19968;DHT22;10145;49.152;9.282;2023-03-14T08:25:12;13.80;99.90
19968;DHT22;10145;49.152;9.282;2023-03-14T08:27:37;14.00;99.90
19968;DHT22;10145;49.152;9.282;2023-03-14T08:30:05;14.30;99.90
19968;DHT22;10145;49.152;9.282;2023-03-14T08:32:31;14.40;99.90
19968;DHT22;10145;49.152;9.282;2023-03-14T08:34:57;14.10;99.90
19968;DHT22;10145;49.152;9.282;2023-03-14T08:37:23;13.90;99.90
19968;DHT22;10145;49.152;9.282;2023-03-14T08:39:50;13.90;99.90
19968;DHT22;10145;49.152;9.282;2023-03-14T08:42:16;13.90;99.90
19968;DHT22;10145;49.152;9.282;2023-03-14T08:44:42;13.90;99.90
19968;DHT22;10145;49.152;9.282;2023-03-14T08:47:07;13.80;99.90
19968;DHT22;10145;49.152;9.282;2023-03-14T08:49:33;13.80;99.90
19968;DHT22;10145;49.152;9.282;2023-03-14T08:51:58;13.70;99.90
19968;DHT22;10145;49.152;9.282;2023-03-14T08:54:24;13.70;99.90
19968;DHT22;10145;49.152;9.282;2023-03-14T08:56:49;13.70;99.90
19968;DHT22;10145;49.152;9.282;2023-03-14T08:59:15;13.50;99.90
19968;DHT22;10145;49.152;9.282;2023-03-14T09:01:40;13.40;99.90
19968;DHT22;10145;49.152;9.282;2023-03-14T09:04:06;13.30;99.90
19968;DHT22;10145;49.152;9.282;2023-03-14T09:06:32;13.20;99.90
19968;DHT22;10145;49.152;9.282;2023-03-14T09:08:58;13.30;99.90
19968;DHT22;10145;49.152;9.282;2023-03-14T09:11:23;13.20;99.90
19968;DHT22;10145;49.152;9.282;2023-03-14T09:13:49;13.00;99.90
19968;DHT22;10145;49.152;9.282;2023-03-14T09:16:14;12.90;99.90
19968;DHT22;10145;49.152;9.282;2023-03-14T09:18:40;12.90;99.90
19968;DHT22;10145;49.152;9.282;2023-03-14T09:21:06;12.90;99.90
19968;DHT22;10145;49.152;9.282;2023-03-14T09:23:31;12.70;99.90
19968;DHT22;10145;49.152;9.282;2023-03-14T09:25:57;12.70;99.90
19968;DHT22;10145;49.152;9.282;2023-03-14T09:28:23;12.70;99.90
19968;DHT22;10145;49.152;9.282;2023-03-14T09:30:49;12.70;99.90
19968;DHT22;10145;49.152;9.282;2023-03-14T09:33:15;12.80;99.90
19968;DHT22;10145;49.152;9.282;2023-03-14T09:35:41;13.00;99.90
19968;DHT22;10145;49.152;9.282;2023-03-14T09:38:06;13.20;99.90
19968;DHT22;10145;49.152;9.282;2023-03-14T09:40:35;13.10;99.90
19968;DHT22;10145;49.152;9.282;2023-03-14T09:43:01;13.10;99.90
19968;DHT22;10145;49.152;9.282;2023-03-14T09:45:31;13.10;99.90
19968;DHT22;10145;49.152;9.282;2023-03-14T09:47:58;13.20;99.90
19968;DHT22;10145;49.152;9.282;2023-03-14T09:50:25;13.20;99.90
19968;DHT22;10145;49.152;9.282;2023-03-14T09:52:56;13.10;99.90
19968;DHT22;10145;49.152;9.282;2023-03-14T09:55:22;13.10;99.90
19968;DHT22;10145;49.152;9.282;2023-03-14T09:57:56;13.20;99.90
19968;DHT22;10145;49.152;9.282;2023-03-14T10:00:26;13.00;99.90
19968;DHT22;10145;49.152;9.282;2023-03-14T10:05:41;12.30;99.90
19968;DHT22;10145;49.152;9.282;2023-03-14T10:08:10;12.10;99.90
19968;DHT22;10145;49.152;9.282;2023-03-14T10:10:36;12.10;99.90
19968;DHT22;10145;49.152;9.282;2023-03-14T10:13:22;12.10;99.90
19968;DHT22;10145;49.152;9.282;2023-03-14T10:16:04;12.10;99.90
19968;DHT22;10145;49.152;9.282;2023-03-14T10:18:33;12.00;99.90
19968;DHT22;10145;49.152;9.282;2023-03-14T10:23:29;12.40;99.90
19968;DHT22;10145;49.152;9.282;2023-03-14T10:28:31;12.90;99.90
19968;DHT22;10145;49.152;9.282;2023-03-14T10:30:58;12.80;99.90
19968;DHT22;10145;49.152;9.282;2023-03-14T10:33:32;12.80;99.90
19968;DHT22;10145;49.152;9.282;2023-03-14T10:36:02;12.80;99.90
19968;DHT22;10145;49.152;9.282;2023-03-14T10:38:33;13.00;99.90
19968;DHT22;10145;49.152;9.282;2023-03-14T10:41:00;13.00;99.90
19968;DHT22;10145;49.152;9.282;2023-03-14T10:43:31;13.00;99.90
19968;DHT22;10145;49.152;9.282;2023-03-14T10:46:01;13.20;99.90
19968;DHT22;10145;49.152;9.282;2023-03-14T10:48:32;13.10;99.90
19968;DHT22;10145;49.152;9.282;2023-03-14T10:51:09;13.20;99.90
19968;DHT22;10145;49.152;9.282;2023-03-14T10:53:41;13.20;99.90
19968;DHT22;10145;49.152;9.282;2023-03-14T10:56:10;13.20;99.90
19968;DHT22;10145;49.152;9.282;2023-03-14T10:58:41;13.30;99.90
19968;DHT22;10145;49.152;9.282;2023-03-14T11:03:48;13.40;99.90
19968;DHT22;10145;49.152;9.282;2023-03-14T11:06:56;13.50;99.90
19968;DHT22;10145;49.152;9.282;2023-03-14T11:09:44;13.20;99.90
19968;DHT22;10145;49.152;9.282;2023-03-14T11:14:44;13.30;99.90
19968;DHT22;10145;49.152;9.282;2023-03-14T11:23:12;13.20;99.90
19968;DHT22;10145;49.152;9.282;2023-03-14T11:25:51;13.40;99.90
19968;DHT22;10145;49.152;9.282;2023-03-14T11:28:23;13.30;99.90
19968;DHT22;10145;49.152;9.282;2023-03-14T11:30:53;13.10;99.90
19968;DHT22;10145;49.152;9.282;2023-03-14T11:33:28;13.20;99.90
19968;DHT22;10145;49.152;9.282;2023-03-14T11:36:09;12.90;99.90
19968;DHT22;10145;49.152;9.282;2023-03-14T11:38:49;13.00;99.90
19968;DHT22;10145;49.152;9.282;2023-03-14T11:41:37;13.00;99.90
19968;DHT22;10145;49.152;9.282;2023-03-14T11:44:13;12.80;99.90
19968;DHT22;10145;49.152;9.282;2023-03-14T11:46:50;12.60;99.90
19968;DHT22;10145;49.152;9.282;2023-03-14T11:49:42;12.50;99.90
19968;DHT22;10145;49.152;9.282;2023-03-14T11:52:25;12.10;99.90
19968;DHT22;10145;49.152;9.282;2023-03-14T11:57:25;11.50;99.90
19968;DHT22;10145;49.152;9.282;2023-03-14T11:59:58;11.10;99.90
19968;DHT22;10145;49.152;9.282;2023-03-14T12:10:13;10.30;99.90
19968;DHT22;10145;49.152;9.282;2023-03-14T12:12:39;10.20;99.90
19968;DHT22;10145;49.152;9.282;2023-03-14T12:15:05;10.20;99.90
19968;DHT22;10145;49.152;9.282;2023-03-14T12:17:43;10.20;99.90
19968;DHT22;10145;49.152;9.282;2023-03-14T12:20:16;10.30;99.90
19968;DHT22;10145;49.152;9.282;2023-03-14T12:22:50;10.30;99.90
19968;DHT22;10145;49.152;9.282;2023-03-14T12:25:26;10.30;99.90
19968;DHT22;10145;49.152;9.282;2023-03-14T12:43:40;9.80;99.90
19968;DHT22;10145;49.152;9.282;2023-03-14T12:51:38;9.40;99.90
19968;DHT22;10145;49.152;9.282;2023-03-14T12:54:34;9.30;99.90
19968;DHT22;10145;49.152;9.282;2023-03-14T12:58:05;9.30;99.90
19968;DHT22;10145;49.152;9.282;2023-03-14T13:00:18;9.30;99.90
19968;DHT22;10145;49.152;9.282;2023-03-14T13:02:45;9.30;99.90
19968;DHT22;10145;49.152;9.282;2023-03-14T13:05:24;9.30;99.90
19968;DHT22;10145;49.152;9.282;2023-03-14T13:10:27;9.20;99.90
19968;DHT22;10145;49.152;9.282;2023-03-14T13:15:42;9.20;99.90
19968;DHT22;10145;49.152;9.282;2023-03-14T13:20:59;9.20;99.90
19968;DHT22;10145;49.152;9.282;2023-03-14T13:23:29;9.30;99.90
19968;DHT22;10145;49.152;9.282;2023-03-14T13:25:56;9.30;99.90
19968;DHT22;10145;49.152;9.282;2023-03-14T13:28:22;9.20;99.90
19968;DHT22;10145;49.152;9.282;2023-03-14T13:30:50;9.20;99.90
19968;DHT22;10145;49.152;9.282;2023-03-14T13:33:21;9.10;99.90
19968;DHT22;10145;49.152;9.282;2023-03-14T13:35:58;9.20;99.90
19968;DHT22;10145;49.152;9.282;2023-03-14T13:38:27;9.20;99.90
19968;DHT22;10145;49.152;9.282;2023-03-14T13:41:00;9.30;99.90
19968;DHT22;10145;49.152;9.282;2023-03-14T13:43:34;9.40;99.90
19968;DHT22;10145;49.152;9.282;2023-03-14T13:46:04;9.50;99.90
19968;DHT22;10145;49.152;9.282;2023-03-14T13:48:32;9.60;99.90
19968;DHT22;10145;49.152;9.282;2023-03-14T13:51:03;9.80;99.90
19968;DHT22;10145;49.152;9.282;2023-03-14T13:53:30;9.90;99.90
19968;DHT22;10145;49.152;9.282;2023-03-14T13:55:56;10.10;99.90
19968;DHT22;10145;49.152;9.282;2023-03-14T13:58:31;10.20;99.90
19968;DHT22;10145;49.152;9.282;2023-03-14T14:03:39;10.30;99.90
19968;DHT22;10145;49.152;9.282;2023-03-14T14:08:54;10.60;99.90
19968;DHT22;10145;49.152;9.282;2023-03-14T14:11:38;10.70;99.90
19968;DHT22;10145;49.152;9.282;2023-03-14T14:14:07;10.50;99.90
19968;DHT22;10145;49.152;9.282;2023-03-14T14:16:35;10.50;99.90
19968;DHT22;10145;49.152;9.282;2023-03-14T14:19:01;10.50;96.80
19968;DHT22;10145;49.152;9.282;2023-03-14T14:21:27;10.50;97.50
19968;DHT22;10145;49.152;9.282;2023-03-14T14:23:53;10.50;97.30
19968;DHT22;10145;49.152;9.282;2023-03-14T14:26:19;10.40;96.30
19968;DHT22;10145;49.152;9.282;2023-03-14T14:28:46;10.20;95.60
19968;DHT22;10145;49.152;9.282;2023-03-14T14:33:53;10.10;97.40
19968;DHT22;10145;49.152;9.282;2023-03-14T14:36:26;10.10;96.50
19968;DHT22;10145;49.152;9.282;2023-03-14T14:39:26;10.10;96.40
19968;DHT22;10145;49.152;9.282;2023-03-14T14:41:48;9.90;95.80
19968;DHT22;10145;49.152;9.282;2023-03-14T14:44:18;10.00;96.60
19968;DHT22;10145;49.152;9.282;2023-03-14T14:46:44;9.90;96.30
19968;DHT22;10145;49.152;9.282;2023-03-14T14:49:13;10.00;95.60
19968;DHT22;10145;49.152;9.282;2023-03-14T14:51:47;10.20;96.00
19968;DHT22;10145;49.152;9.282;2023-03-14T14:54:18;10.40;95.20
19968;DHT22;10145;49.152;9.282;2023-03-14T14:56:52;10.40;94.80
19968;DHT22;10145;49.152;9.282;2023-03-14T14:59:28;10.40;94.20
19968;DHT22;10145;49.152;9.282;2023-03-14T15:01:58;10.40;93.80
19968;DHT22;10145;49.152;9.282;2023-03-14T15:04:24;10.30;93.00
19968;DHT22;10145;49.152;9.282;2023-03-14T15:06:50;10.10;93.30
19968;DHT22;10145;49.152;9.282;2023-03-14T15:09:18;10.20;92.40
19968;DHT22;10145;49.152;9.282;2023-03-14T15:11:43;10.20;92.80
19968;DHT22;10145;49.152;9.282;2023-03-14T15:14:09;10.30;93.60
19968;DHT22;10145;49.152;9.282;2023-03-14T15:16:35;11.70;92.30
19968;DHT22;10145;49.152;9.282;2023-03-14T15:19:03;13.70;91.00
19968;DHT22;10145;49.152;9.282;2023-03-14T15:21:31;15.50;82.10
19968;DHT22;10145;49.152;9.282;2023-03-14T15:23:57;14.90;79.70
19968;DHT22;10145;49.152;9.282;2023-03-14T15:26:25;13.50;78.90
19968;DHT22;10145;49.152;9.282;2023-03-14T15:28:51;13.80;81.00
19968;DHT22;10145;49.152;9.282;2023-03-14T15:31:17;14.60;77.50
19968;DHT22;10145;49.152;9.282;2023-03-14T15:33:45;12.90;79.40
19968;DHT22;10145;49.152;9.282;2023-03-14T15:36:26;11.90;84.70
19968;DHT22;10145;49.152;9.282;2023-03-14T15:38:53;11.30;86.10
19968;DHT22;10145;49.152;9.282;2023-03-14T15:41:19;10.70;86.80
19968;DHT22;10145;49.152;9.282;2023-03-14T15:43:46;12.00;87.10
19968;DHT22;10145;49.152;9.282;2023-03-14T15:46:11;12.60;84.40
19968;DHT22;10145;49.152;9.282;2023-03-14T15:48:38;13.90;80.40
19968;DHT22;10145;49.152;9.282;2023-03-14T15:51:03;14.80;78.50
19968;DHT22;10145;49.152;9.282;2023-03-14T15:53:29;15.00;75.90
19968;DHT22;10145;49.152;9.282;2023-03-14T15:55:55;15.30;73.90
19968;DHT22;10145;49.152;9.282;2023-03-14T15:58:21;14.50;74.20
19968;DHT22;10145;49.152;9.282;2023-03-14T16:00:46;14.60;74.50
19968;DHT22;10145;49.152;9.282;2023-03-14T16:03:12;14.90;73.40
19968;DHT22;10145;49.152;9.282;2023-03-14T16:05:39;15.30;71.90
19968;DHT22;10145;49.152;9.282;2023-03-14T16:08:05;15.20;72.80
19968;DHT22;10145;49.152;9.282;2023-03-14T16:10:31;15.50;74.10
19968;DHT22;10145;49.152;9.282;2023-03-14T16:12:56;15.90;71.40
19968;DHT22;10145;49.152;9.282;2023-03-14T16:15:22;15.90;70.70
19968;DHT22;10145;49.152;9.282;2023-03-14T16:17:52;15.70;72.20
19968;DHT22;10145;49.152;9.282;2023-03-14T16:20:18;15.70;71.60
19968;DHT22;10145;49.152;9.282;2023-03-14T16:22:45;15.30;73.50
19968;DHT22;10145;49.152;9.282;2023-03-14T16:25:11;14.90;73.30
19968;DHT22;10145;49.152;9.282;2023-03-14T16:27:36;14.50;73.50
19968;DHT22;10145;49.152;9.282;2023-03-14T16:30:03;13.80;76.70
19968;DHT22;10145;49.152;9.282;2023-03-14T16:32:29;12.10;78.70
19968;DHT22;10145;49.152;9.282;2023-03-14T16:34:54;11.00;83.90
19968;DHT22;10145;49.152;9.282;2023-03-14T16:37:22;10.30;86.90
19968;DHT22;10145;49.152;9.282;2023-03-14T16:39:48;9.80;88.60
19968;DHT22;10145;49.152;9.282;2023-03-14T16:42:14;9.60;90.60
19968;DHT22;10145;49.152;9.282;2023-03-14T16:44:40;9.40;90.80
19968;DHT22;10145;49.152;9.282;2023-03-14T16:47:05;9.20;91.90
19968;DHT22;10145;49.152;9.282;2023-03-14T16:49:31;9.10;92.20
19968;DHT22;10145;49.152;9.282;2023-03-14T16:51:56;9.10;92.30
19968;DHT22;10145;49.152;9.282;2023-03-14T16:54:22;9.00;92.10